createdAt,value
2022-09-06T00:00:07.851Z,1.92
2022-09-06T00:05:08.465Z,1.70
2022-09-06T00:10:08.183Z,1.70
2022-09-06T00:15:07.903Z,1.80
2022-09-06T00:20:08.596Z,1.67
2022-09-06T00:25:08.303Z,1.67
2022-09-06T00:30:08.023Z,1.98
2022-09-06T00:35:07.743Z,2.38
2022-09-06T00:40:08.533Z,2.22
2022-09-06T00:45:08.305Z,1.90
2022-09-06T00:50:07.988Z,2.40
2022-09-06T00:55:07.672Z,2.20
2022-09-06T01:00:08.348Z,2.38
2022-09-06T01:05:08.060Z,2.47
2022-09-06T01:10:07.753Z,3.00
2022-09-06T01:15:08.462Z,2.72
2022-09-06T01:20:08.154Z,3.00
2022-09-06T01:25:07.882Z,2.13
2022-09-06T01:30:08.588Z,2.05
2022-09-06T01:35:08.253Z,2.40
2022-09-06T01:40:08.139Z,1.70
2022-09-06T01:45:07.850Z,2.05
2022-09-06T01:50:08.531Z,2.55
2022-09-06T01:55:08.209Z,2.50
2022-09-06T02:00:14.041Z,2.17
2022-09-06T02:05:07.751Z,2.38
2022-09-06T02:10:08.453Z,2.15
2022-09-06T02:15:08.112Z,2.45
2022-09-06T02:20:07.798Z,2.45
2022-09-06T02:25:08.529Z,2.17
2022-09-06T02:30:08.243Z,2.10
2022-09-06T02:35:07.988Z,2.15
2022-09-06T02:40:07.836Z,2.10
2022-09-06T02:45:08.571Z,2.10
2022-09-06T02:50:08.271Z,2.38
2022-09-06T02:55:07.960Z,2.40
2022-09-06T03:00:07.688Z,2.10
2022-09-06T03:05:08.382Z,2.17
2022-09-06T03:10:08.106Z,2.10
2022-09-06T03:15:07.798Z,2.05
2022-09-06T03:20:08.489Z,2.20
2022-09-06T03:25:08.162Z,2.05
2022-09-06T03:30:07.862Z,1.90
2022-09-06T03:35:08.562Z,1.90
2022-09-06T03:40:08.393Z,2.50
2022-09-06T03:45:08.176Z,2.10
2022-09-06T03:50:07.853Z,2.00
2022-09-06T03:55:08.510Z,1.80
2022-09-06T04:00:08.220Z,2.20
2022-09-06T04:05:02.121Z,2.40
2022-09-06T04:10:02.191Z,2.60
2022-09-06T04:15:02.262Z,2.38
2022-09-06T04:20:03.020Z,2.10
2022-09-06T04:25:02.198Z,2.22
2022-09-06T04:30:02.814Z,2.25
2022-09-06T04:35:03.117Z,2.15
2022-09-06T04:40:02.170Z,2.15
2022-09-06T04:45:02.784Z,2.42
2022-09-06T04:50:02.867Z,2.20
2022-09-06T04:55:02.792Z,2.40
2022-09-06T05:00:03.162Z,2.08
2022-09-06T05:05:02.901Z,2.53
2022-09-06T05:10:02.894Z,2.03
2022-09-06T05:15:03.009Z,2.45
2022-09-06T05:20:02.137Z,2.50
2022-09-06T05:25:02.407Z,2.38
2022-09-06T05:30:02.755Z,2.47
2022-09-06T05:35:02.842Z,2.38
2022-09-06T05:40:02.831Z,2.45
2022-09-06T05:45:03.048Z,2.53
2022-09-06T05:50:02.310Z,2.80
2022-09-06T05:55:02.356Z,2.72
2022-09-06T06:00:02.291Z,2.92
2022-09-06T06:05:02.190Z,2.50
2022-09-06T06:10:02.353Z,2.70
2022-09-06T06:15:02.468Z,2.65
2022-09-06T06:20:02.738Z,2.50
2022-09-06T06:25:02.940Z,2.50
2022-09-06T06:30:03.020Z,2.72
2022-09-06T06:35:02.528Z,2.88
2022-09-06T06:40:02.908Z,3.13
2022-09-06T06:45:01.890Z,2.60
2022-09-06T06:50:03.098Z,3.05
2022-09-06T06:55:02.224Z,3.08
2022-09-06T07:00:02.083Z,3.28
2022-09-06T07:05:02.771Z,3.40
2022-09-06T07:10:33.598Z,3.60
2022-09-06T07:15:02.478Z,3.13
2022-09-06T07:25:02.936Z,3.50
2022-09-06T07:30:03.148Z,3.38
2022-09-06T07:35:02.198Z,3.50
2022-09-06T07:40:02.371Z,3.83
2022-09-06T07:45:02.662Z,3.55
2022-09-06T07:55:04.294Z,3.13
2022-09-06T08:00:02.364Z,3.17
2022-09-06T08:05:02.571Z,4.00
2022-09-06T08:10:03.028Z,4.00
2022-09-06T08:15:02.241Z,3.50
2022-09-06T08:20:02.268Z,3.58
2022-09-06T08:25:02.310Z,3.35
2022-09-06T08:30:02.424Z,3.97
2022-09-06T08:35:02.700Z,2.80
2022-09-06T08:40:02.574Z,2.83
2022-09-06T08:45:02.851Z,2.40
2022-09-06T08:50:03.583Z,2.17
2022-09-06T08:55:02.644Z,2.33
2022-09-06T09:00:03.128Z,2.65
2022-09-06T09:05:02.538Z,2.20
2022-09-06T09:10:02.639Z,2.22
2022-09-06T09:15:02.636Z,1.80
2022-09-06T09:20:02.806Z,1.73
2022-09-06T09:25:04.402Z,1.92
2022-09-06T09:35:12.496Z,0
2022-09-06T09:40:02.559Z,1.60
2022-09-06T09:45:02.664Z,1.45
2022-09-06T09:50:03.000Z,1.50
2022-09-06T09:55:02.481Z,1.20
2022-09-06T10:00:02.679Z,1.02
2022-09-06T10:05:03.055Z,1.27
2022-09-06T10:10:02.407Z,1.00
2022-09-06T10:15:06.852Z,1.10
2022-09-06T10:20:02.653Z,1.10
2022-09-06T10:25:02.737Z,0.93
2022-09-06T10:30:02.843Z,1.05
2022-09-06T10:35:12.965Z,0
2022-09-06T10:40:02.467Z,1.25
2022-09-06T10:45:02.708Z,1.15
2022-09-06T10:50:02.537Z,1.30
2022-09-06T10:55:02.783Z,1.00
2022-09-06T11:00:03.078Z,1.08
2022-09-06T11:10:03.073Z,0.80
2022-09-06T11:15:02.064Z,1.00
2022-09-06T11:20:01.952Z,0.60
2022-09-06T11:25:02.076Z,0.90
2022-09-06T11:30:02.039Z,0.93
2022-09-06T11:35:02.138Z,0.80
2022-09-06T11:45:03.538Z,1.33
2022-09-06T11:50:02.820Z,0.93
2022-09-06T11:55:03.306Z,1.20
2022-09-06T12:00:02.387Z,1.20
2022-09-06T12:05:02.506Z,1.38
2022-09-06T12:10:02.542Z,0.90
2022-09-06T12:15:02.891Z,0.90
2022-09-06T12:20:04.992Z,0.80
2022-09-06T12:25:03.196Z,0.77
2022-09-06T12:30:05.197Z,1.20
2022-09-06T12:40:02.950Z,1.17
2022-09-06T12:45:02.353Z,1.00
2022-09-06T12:50:12.583Z,0
2022-09-06T12:55:02.786Z,1.23
2022-09-06T13:00:03.515Z,1.10
2022-09-06T13:05:02.551Z,1.10
2022-09-06T13:10:02.872Z,0.85
2022-09-06T13:15:03.186Z,1.50
2022-09-06T13:20:02.493Z,1.10
2022-09-06T13:25:02.501Z,1.10
2022-09-06T13:30:02.646Z,1.40
2022-09-06T13:35:03.042Z,1.20
2022-09-06T13:40:02.615Z,1.10
2022-09-06T13:45:02.628Z,1.30
2022-09-06T13:50:02.911Z,1.10
2022-09-06T13:55:03.123Z,1.23
2022-09-06T14:00:02.300Z,1.40
2022-09-06T14:05:02.657Z,1.02
2022-09-06T14:10:03.071Z,1.35
2022-09-06T14:15:02.243Z,1.08
2022-09-06T14:20:02.443Z,0.90
2022-09-06T14:25:02.679Z,1.08
2022-09-06T14:30:02.609Z,0.90
2022-09-06T14:35:02.926Z,0.80
2022-09-06T14:40:03.228Z,0.98
2022-09-06T14:45:02.712Z,1.00
2022-09-06T14:50:03.312Z,0.93
2022-09-06T14:55:02.238Z,0.98
2022-09-06T15:00:02.773Z,0.93
2022-09-06T15:05:02.674Z,1.10
2022-09-06T15:10:03.334Z,0.90
2022-09-06T15:15:02.416Z,0.70
2022-09-06T15:20:02.662Z,0.90
2022-09-06T15:25:02.911Z,0.82
2022-09-06T15:30:03.458Z,0.70
2022-09-06T15:35:04.630Z,0.90
2022-09-06T15:40:02.974Z,0.70
2022-09-06T15:45:02.093Z,0.80
2022-09-06T15:50:02.133Z,0.80
2022-09-06T15:55:03.294Z,0.63
2022-09-06T16:00:02.501Z,1.00
2022-09-06T16:05:02.433Z,0.90
2022-09-06T16:10:02.303Z,0.60
2022-09-06T16:15:02.285Z,0.80
2022-09-06T16:20:02.547Z,0.80
2022-09-06T16:25:02.997Z,0.80
2022-09-06T16:30:02.201Z,0.80
2022-09-06T16:35:02.592Z,0.77
2022-09-06T16:40:02.662Z,0.90
2022-09-06T16:45:05.516Z,0.98
2022-09-06T16:50:02.531Z,0.95
2022-09-06T16:55:02.465Z,1.13
2022-09-06T17:00:02.854Z,0.82
2022-09-06T17:05:02.963Z,0.88
2022-09-06T17:10:01.900Z,1.00
2022-09-06T17:15:02.755Z,0.98
2022-09-06T17:20:03.128Z,0.82
2022-09-06T17:25:02.478Z,1.00
2022-09-06T17:30:02.646Z,0.90
2022-09-06T17:35:02.727Z,0.77
2022-09-06T17:40:02.721Z,0.70
2022-09-06T17:45:02.659Z,0.90
2022-09-06T17:50:02.702Z,0.70
2022-09-06T17:55:03.309Z,0.60
2022-09-06T18:00:02.599Z,0.88
2022-09-06T18:05:03.420Z,0.70
2022-09-06T18:10:02.438Z,1.20
2022-09-06T18:15:02.411Z,0.85
2022-09-06T18:20:02.473Z,1.20
2022-09-06T18:25:02.422Z,0.90
2022-09-06T18:30:02.844Z,1.00
2022-09-06T18:35:03.132Z,1.17
2022-09-06T18:40:02.154Z,1.60
2022-09-06T18:45:02.405Z,1.27
2022-09-06T18:50:02.332Z,2.40
2022-09-06T18:55:02.272Z,1.70
2022-09-06T19:00:03.416Z,1.10
2022-09-06T19:05:02.546Z,1.48
2022-09-06T19:10:02.706Z,1.20
2022-09-06T19:15:02.921Z,1.30
2022-09-06T19:20:03.067Z,1.10
2022-09-06T19:25:02.060Z,1.58
2022-09-06T19:30:02.127Z,1.25
2022-09-06T19:35:02.491Z,1.50
2022-09-06T19:40:02.892Z,1.60
2022-09-06T19:45:03.211Z,1.63
2022-09-06T19:50:02.493Z,1.75
2022-09-06T19:55:02.836Z,1.35
2022-09-06T20:00:04.101Z,1.50
2022-09-06T20:05:02.298Z,1.40
2022-09-06T20:10:02.523Z,1.27
2022-09-06T20:15:02.686Z,1.55
2022-09-06T20:20:02.664Z,1.70
2022-09-06T20:25:02.970Z,1.63
2022-09-06T20:30:02.254Z,1.60
2022-09-06T20:35:14.868Z,1.60
2022-09-06T20:40:08.639Z,1.35
2022-09-06T20:45:08.341Z,1.50
2022-09-06T20:50:08.045Z,1.45
2022-09-06T20:55:07.751Z,1.60
2022-09-06T21:00:12.446Z,1.40
2022-09-06T21:05:07.882Z,1.73
2022-09-06T21:10:08.594Z,1.70
2022-09-06T21:15:08.661Z,1.50
2022-09-06T21:20:08.354Z,1.90
2022-09-06T21:25:08.060Z,2.10
2022-09-06T21:30:07.749Z,2.00
2022-09-06T21:35:08.443Z,2.10
2022-09-06T21:40:08.207Z,1.70
2022-09-06T21:45:07.985Z,1.77
2022-09-06T21:50:07.639Z,1.73
2022-09-06T21:55:12.324Z,1.58
2022-09-06T22:00:08.602Z,1.42
2022-09-06T22:05:08.354Z,1.65
2022-09-06T22:10:08.074Z,1.60
2022-09-06T22:15:07.835Z,1.90
2022-09-06T22:20:08.533Z,1.70
2022-09-06T22:25:08.219Z,1.70
2022-09-06T22:30:07.893Z,1.45
2022-09-06T22:35:08.568Z,1.70
2022-09-06T22:40:08.328Z,1.33
2022-09-06T22:45:08.075Z,1.20
2022-09-06T22:50:07.747Z,1.50
2022-09-06T22:55:08.455Z,1.50
2022-09-06T23:01:01.267Z,1.50
2022-09-06T23:05:08.025Z,1.55
2022-09-06T23:10:07.671Z,1.38
2022-09-06T23:15:08.361Z,1.52
2022-09-06T23:20:08.099Z,1.30
2022-09-06T23:25:07.809Z,1.25
2022-09-06T23:30:08.560Z,1.60
2022-09-06T23:35:08.210Z,1.80
2022-09-06T23:40:09.246Z,1.95
2022-09-06T23:45:08.135Z,2.42
2022-09-06T23:50:07.810Z,1.50
2022-09-06T23:55:08.469Z,1.63
